createdAt,value
2017-12-28T00:02:23.598Z,98413
2017-12-28T00:04:51.866Z,98422
2017-12-28T00:07:20.109Z,98416
2017-12-28T00:09:48.351Z,98424
2017-12-28T00:12:16.836Z,98419
2017-12-28T00:14:46.526Z,98428
2017-12-28T00:17:14.930Z,98427
2017-12-28T00:19:43.981Z,98429
2017-12-28T00:22:12.230Z,98436
2017-12-28T00:24:41.093Z,98428
2017-12-28T00:27:09.340Z,98425
2017-12-28T00:29:37.605Z,98424
2017-12-28T00:32:05.827Z,98421
2017-12-28T00:34:34.073Z,98417
2017-12-28T00:37:03.052Z,98412
2017-12-28T00:39:31.287Z,98416
2017-12-28T00:41:59.576Z,98412
2017-12-28T00:44:27.793Z,98419
2017-12-28T00:46:56.936Z,98424
2017-12-28T00:49:26.671Z,98410
2017-12-28T00:51:55.550Z,98413
2017-12-28T00:54:25.773Z,98414
2017-12-28T00:56:55.594Z,98415
2017-12-28T00:59:29.013Z,98423
2017-12-28T01:01:58.380Z,98427
2017-12-28T01:04:26.990Z,98420
2017-12-28T01:06:57.371Z,98418
2017-12-28T01:09:27.109Z,98422
2017-12-28T01:11:57.315Z,98420
2017-12-28T01:14:26.789Z,98420
2017-12-28T01:16:56.634Z,98417
2017-12-28T01:19:26.530Z,98426
2017-12-28T01:21:57.330Z,98425
2017-12-28T01:24:26.026Z,98418
2017-12-28T01:26:55.853Z,98429
2017-12-28T01:29:24.560Z,98432
2017-12-28T01:31:53.069Z,98433
2017-12-28T01:34:23.707Z,98442
2017-12-28T01:36:52.257Z,98445
2017-12-28T01:39:23.507Z,98435
2017-12-28T01:41:53.049Z,98437
2017-12-28T01:44:22.311Z,98438
2017-12-28T01:46:50.804Z,98436
2017-12-28T01:49:19.302Z,98438
2017-12-28T01:51:48.482Z,98440
2017-12-28T01:54:17.828Z,98450
2017-12-28T01:56:46.350Z,98452
2017-12-28T01:59:16.323Z,98452
2017-12-28T02:01:45.704Z,98456
2017-12-28T02:04:16.538Z,98462
2017-12-28T02:06:45.857Z,98464
2017-12-28T02:09:15.057Z,98468
2017-12-28T02:11:44.500Z,98461
2017-12-28T02:16:49.755Z,98452
2017-12-28T02:19:18.294Z,98450
2017-12-28T02:21:47.045Z,98463
2017-12-28T02:24:16.332Z,98449
2017-12-28T02:26:48.041Z,98462
2017-12-28T02:29:16.602Z,98458
2017-12-28T02:31:47.358Z,98465
2017-12-28T02:34:17.455Z,98463
2017-12-28T02:36:46.028Z,98463
2017-12-28T02:39:15.618Z,98462
2017-12-28T02:41:44.923Z,98461
2017-12-28T02:44:14.078Z,98462
2017-12-28T02:46:43.792Z,98467
2017-12-28T02:49:12.389Z,98469
2017-12-28T02:51:42.441Z,98469
2017-12-28T02:54:11.034Z,98471
2017-12-28T02:56:39.701Z,98473
2017-12-28T02:59:08.571Z,98473
2017-12-28T03:01:37.850Z,98475
2017-12-28T03:04:08.376Z,98472
2017-12-28T03:06:36.840Z,98474
2017-12-28T03:09:05.204Z,98477
2017-12-28T03:11:33.629Z,98479
2017-12-28T03:14:02.919Z,98476
2017-12-28T03:16:31.797Z,98477
2017-12-28T03:19:00.225Z,98486
2017-12-28T03:21:28.736Z,98487
2017-12-28T03:23:58.415Z,98477
2017-12-28T03:26:28.509Z,98484
2017-12-28T03:31:31.599Z,98487
2017-12-28T03:34:00.192Z,98477
2017-12-28T03:36:28.622Z,98488
2017-12-28T03:38:57.051Z,98489
2017-12-28T03:41:25.538Z,98495
2017-12-28T03:43:54.034Z,98489
2017-12-28T03:46:23.291Z,98491
2017-12-28T03:48:52.489Z,98493
2017-12-28T03:51:20.871Z,98496
2017-12-28T03:53:49.190Z,98515
2017-12-28T03:56:18.287Z,98516
2017-12-28T03:58:46.582Z,98523
2017-12-28T04:01:14.850Z,98534
2017-12-28T04:03:43.190Z,98535
2017-12-28T04:06:11.502Z,98530
2017-12-28T04:08:39.972Z,98542
2017-12-28T04:11:08.287Z,98539
2017-12-28T04:13:36.577Z,98534
2017-12-28T04:16:04.776Z,98539
2017-12-28T04:18:33.017Z,98535
2017-12-28T04:21:01.264Z,98538
2017-12-28T04:23:29.576Z,98546
2017-12-28T04:25:57.803Z,98542
2017-12-28T04:28:26.080Z,98545
2017-12-28T04:30:55.076Z,98555
2017-12-28T04:33:23.362Z,98551
2017-12-28T04:35:51.586Z,98557
2017-12-28T04:38:19.798Z,98566
2017-12-28T04:40:48.065Z,98573
2017-12-28T04:43:16.294Z,98570
2017-12-28T04:45:44.536Z,98575
2017-12-28T04:48:12.758Z,98578
2017-12-28T04:50:40.980Z,98590
2017-12-28T04:53:09.226Z,98587
2017-12-28T04:55:38.227Z,98591
2017-12-28T04:58:07.206Z,98596
2017-12-28T05:00:35.483Z,98608
2017-12-28T05:03:04.522Z,98605
2017-12-28T05:05:32.753Z,98617
2017-12-28T05:08:00.983Z,98609
2017-12-28T05:10:29.233Z,98616
2017-12-28T05:12:57.486Z,98623
2017-12-28T05:15:26.495Z,98621
2017-12-28T05:17:54.823Z,98627
2017-12-28T05:20:23.043Z,98632
2017-12-28T05:22:51.263Z,98640
2017-12-28T05:25:19.514Z,98636
2017-12-28T05:27:48.546Z,98644
2017-12-28T05:30:16.782Z,98656
2017-12-28T05:32:45.789Z,98672
2017-12-28T05:35:14.002Z,98678
2017-12-28T05:37:42.990Z,98699
2017-12-28T05:40:11.988Z,98703
2017-12-28T05:42:41.002Z,98700
2017-12-28T05:45:09.254Z,98692
2017-12-28T05:47:38.233Z,98710
2017-12-28T05:50:06.486Z,98711
2017-12-28T05:52:34.701Z,98710
2017-12-28T05:55:03.729Z,98720
2017-12-28T05:57:31.962Z,98723
2017-12-28T06:00:00.957Z,98721
2017-12-28T06:02:29.171Z,98744
2017-12-28T06:04:57.421Z,98763
2017-12-28T06:07:26.377Z,98754
2017-12-28T06:09:54.600Z,98768
2017-12-28T06:12:22.890Z,98769
2017-12-28T06:14:51.139Z,98774
2017-12-28T06:17:19.377Z,98776
2017-12-28T06:19:47.589Z,98775
2017-12-28T06:22:15.810Z,98787
2017-12-28T06:24:44.009Z,98788
2017-12-28T06:27:13.001Z,98796
2017-12-28T06:29:41.982Z,98802
2017-12-28T06:32:10.213Z,98812
2017-12-28T06:34:38.459Z,98816
2017-12-28T06:37:06.684Z,98828
2017-12-28T06:39:34.916Z,98830
2017-12-28T06:42:03.125Z,98834
2017-12-28T06:44:31.348Z,98840
2017-12-28T06:47:00.342Z,98838
2017-12-28T06:49:29.317Z,98848
2017-12-28T06:51:58.304Z,98848
2017-12-28T06:54:26.581Z,98855
2017-12-28T06:56:54.847Z,98849
2017-12-28T06:59:23.060Z,98860
2017-12-28T07:01:51.258Z,98856
2017-12-28T07:04:19.474Z,98865
2017-12-28T07:06:48.538Z,98873
2017-12-28T07:09:16.863Z,98879
2017-12-28T07:11:45.873Z,98887
2017-12-28T07:14:14.086Z,98891
2017-12-28T07:16:42.302Z,98880
2017-12-28T07:19:11.282Z,98885
2017-12-28T07:21:40.355Z,98886
2017-12-28T07:24:08.615Z,98882
2017-12-28T07:26:36.855Z,98892
2017-12-28T07:29:05.091Z,98893
2017-12-28T07:31:33.301Z,98893
2017-12-28T07:34:01.518Z,98883
2017-12-28T07:36:29.844Z,98897
2017-12-28T07:38:58.825Z,98895
2017-12-28T07:41:27.802Z,98896
2017-12-28T07:43:56.097Z,98899
2017-12-28T07:46:25.103Z,98900
2017-12-28T07:48:53.326Z,98908
2017-12-28T07:51:21.547Z,98911
2017-12-28T07:53:49.775Z,98918
2017-12-28T07:56:17.980Z,98924
2017-12-28T07:58:46.964Z,98926
2017-12-28T08:01:16.000Z,98923
2017-12-28T08:03:45.003Z,98935
2017-12-28T08:06:13.241Z,98939
2017-12-28T08:08:42.241Z,98945
2017-12-28T08:11:10.445Z,98939
2017-12-28T08:13:38.650Z,98951
2017-12-28T08:16:06.884Z,98952
2017-12-28T08:18:35.321Z,98955
2017-12-28T08:21:04.318Z,98962
2017-12-28T08:23:33.297Z,98963
2017-12-28T08:26:01.520Z,98967
2017-12-28T08:28:29.861Z,98972
2017-12-28T08:30:58.850Z,98968
2017-12-28T08:33:27.855Z,98967
2017-12-28T08:35:56.843Z,98969
2017-12-28T08:38:25.835Z,98970
2017-12-28T08:40:54.079Z,98969
2017-12-28T08:43:22.302Z,98977
2017-12-28T08:45:50.575Z,98985
2017-12-28T08:48:18.816Z,98988
2017-12-28T08:50:47.838Z,98993
2017-12-28T08:53:16.040Z,98995
2017-12-28T08:55:44.255Z,98987
2017-12-28T08:58:12.467Z,98984
2017-12-28T09:00:40.711Z,98986
2017-12-28T09:03:09.695Z,98980
2017-12-28T09:05:37.936Z,98982
2017-12-28T09:08:06.136Z,98987
2017-12-28T09:10:34.353Z,98986
2017-12-28T09:13:02.597Z,98982
2017-12-28T09:15:31.597Z,98991
2017-12-28T09:18:00.707Z,98998
2017-12-28T09:20:28.911Z,99000
2017-12-28T09:22:57.112Z,98999
2017-12-28T09:25:25.357Z,99004
2017-12-28T09:27:53.561Z,99015
2017-12-28T09:30:21.802Z,99014
2017-12-28T09:32:50.032Z,99015
2017-12-28T09:35:19.020Z,99023
2017-12-28T09:37:47.999Z,99035
2017-12-28T09:40:16.216Z,99030
2017-12-28T09:42:44.445Z,99030
2017-12-28T09:45:12.672Z,99035
2017-12-28T09:47:42.247Z,99048
2017-12-28T09:50:13.742Z,99047
2017-12-28T09:52:41.979Z,99061
2017-12-28T09:55:10.997Z,99070
2017-12-28T09:57:40.514Z,99069
2017-12-28T10:00:08.769Z,99070
2017-12-28T10:02:42.845Z,99067
2017-12-28T10:05:11.952Z,99074
2017-12-28T10:07:40.939Z,99070
2017-12-28T10:10:09.931Z,99077
2017-12-28T10:12:38.214Z,99076
2017-12-28T10:15:11.677Z,99080
2017-12-28T10:20:15.990Z,99089
2017-12-28T10:22:44.221Z,99091
2017-12-28T10:25:14.226Z,99093
2017-12-28T10:27:47.274Z,99097
2017-12-28T10:30:16.415Z,99100
2017-12-28T10:32:45.415Z,99104
2017-12-28T10:35:14.393Z,99106
2017-12-28T10:37:43.357Z,99107
2017-12-28T10:40:11.570Z,99113
2017-12-28T10:42:40.619Z,99117
2017-12-28T10:45:10.424Z,99119
2017-12-28T10:47:38.643Z,99131
2017-12-28T10:50:07.043Z,99126
2017-12-28T10:52:36.135Z,99121
2017-12-28T10:55:04.354Z,99139
2017-12-28T10:57:32.569Z,99139
2017-12-28T11:00:01.568Z,99137
2017-12-28T11:02:29.833Z,99141
2017-12-28T11:04:58.872Z,99149
2017-12-28T11:07:27.117Z,99141
2017-12-28T11:09:55.375Z,99145
2017-12-28T11:12:41.793Z,99139
2017-12-28T11:15:10.170Z,99141
2017-12-28T11:17:38.468Z,99145
2017-12-28T11:20:06.786Z,99150
2017-12-28T11:22:35.000Z,99147
2017-12-28T11:25:03.226Z,99149
2017-12-28T11:27:31.626Z,99135
2017-12-28T11:30:01.382Z,99149
2017-12-28T11:32:29.676Z,99152
2017-12-28T11:34:58.025Z,99151
2017-12-28T11:37:27.262Z,99154
2017-12-28T11:39:56.539Z,99158
2017-12-28T11:42:24.919Z,99153
2017-12-28T11:44:54.721Z,99157
2017-12-28T11:47:23.321Z,99156
2017-12-28T11:49:52.513Z,99148
2017-12-28T11:52:22.678Z,99154
2017-12-28T11:55:05.890Z,99171
2017-12-28T11:57:37.107Z,99174
2017-12-28T12:00:21.342Z,99171
2017-12-28T12:02:54.031Z,99171
2017-12-28T12:05:24.617Z,99171
2017-12-28T12:07:53.014Z,99167
2017-12-28T12:10:23.294Z,99171
2017-12-28T12:12:51.600Z,99176
2017-12-28T12:15:20.010Z,99179
2017-12-28T12:17:49.263Z,99174
2017-12-28T12:20:18.791Z,99173
2017-12-28T12:22:47.195Z,99182
2017-12-28T12:25:15.511Z,99178
2017-12-28T12:27:45.373Z,99189
2017-12-28T12:30:13.740Z,99189
2017-12-28T12:32:42.834Z,99202
2017-12-28T12:35:11.159Z,99194
2017-12-28T12:37:39.705Z,99195
2017-12-28T12:40:08.698Z,99204
2017-12-28T12:42:37.082Z,99200
2017-12-28T12:45:05.458Z,99198
2017-12-28T13:01:10.069Z,99206
2017-12-28T13:06:30.787Z,99210
2017-12-28T13:09:01.698Z,99226
2017-12-28T13:11:30.551Z,99209
2017-12-28T14:34:55.006Z,99298
2017-12-28T14:37:23.221Z,99299
2017-12-28T14:39:52.311Z,99309
2017-12-28T14:42:21.373Z,99317
2017-12-28T14:44:49.586Z,99310
2017-12-28T14:47:18.630Z,99312
2017-12-28T14:49:46.866Z,99317
2017-12-28T14:52:15.533Z,99318
2017-12-28T14:54:45.409Z,99312
2017-12-28T14:57:13.668Z,99320
2017-12-28T14:59:41.925Z,99322
2017-12-28T15:02:10.160Z,99324
2017-12-28T15:04:39.180Z,99327
2017-12-28T15:07:08.270Z,99331
2017-12-28T15:09:37.285Z,99343
2017-12-28T15:12:05.495Z,99332
2017-12-28T15:14:33.733Z,99328
2017-12-28T15:17:02.030Z,99333
2017-12-28T15:19:30.505Z,99343
2017-12-28T15:21:58.750Z,99336
2017-12-28T15:24:26.992Z,99341
2017-12-28T15:26:55.199Z,99343
2017-12-28T15:29:23.479Z,99347
2017-12-28T15:31:51.707Z,99356
2017-12-28T15:34:19.974Z,99348
2017-12-28T15:36:48.202Z,99349
2017-12-28T15:39:17.195Z,99355
2017-12-28T15:41:45.424Z,99359
2017-12-28T15:44:13.696Z,99361
2017-12-28T15:46:41.939Z,99365
2017-12-28T15:49:10.331Z,99372
2017-12-28T15:51:38.581Z,99368
2017-12-28T15:54:06.797Z,99375
2017-12-28T15:56:35.030Z,99376
2017-12-28T15:59:03.265Z,99381
2017-12-28T16:01:32.259Z,99375
2017-12-28T16:04:01.250Z,99377
2017-12-28T16:06:30.392Z,99384
2017-12-28T16:08:58.694Z,99388
2017-12-28T16:11:26.966Z,99381
2017-12-28T16:13:55.231Z,99391
2017-12-28T16:16:23.608Z,99398
2017-12-28T16:18:51.827Z,99391
2017-12-28T16:21:20.928Z,99402
2017-12-28T16:23:49.980Z,99405
2017-12-28T16:26:18.300Z,99416
2017-12-28T16:28:46.603Z,99401
2017-12-28T16:31:14.910Z,99404
2017-12-28T16:33:43.223Z,99419
2017-12-28T16:36:12.417Z,99420
2017-12-28T16:38:41.433Z,99421
2017-12-28T16:41:10.500Z,99416
2017-12-28T16:43:38.753Z,99428
2017-12-28T16:46:06.973Z,99424
2017-12-28T16:48:35.989Z,99426
2017-12-28T16:51:04.219Z,99424
2017-12-28T16:53:32.560Z,99422
2017-12-28T16:56:00.979Z,99424
2017-12-28T16:58:30.058Z,99424
2017-12-28T17:00:58.278Z,99433
2017-12-28T17:03:26.534Z,99434
2017-12-28T17:05:54.969Z,99437
2017-12-28T17:08:23.229Z,99455
2017-12-28T17:10:51.507Z,99440
2017-12-28T17:13:19.770Z,99441
2017-12-28T17:15:48.000Z,99439
2017-12-28T17:18:17.000Z,99452
2017-12-28T17:20:45.248Z,99446
2017-12-28T17:23:14.431Z,99454
2017-12-28T17:25:42.689Z,99455
2017-12-28T17:28:10.992Z,99461
2017-12-28T17:30:39.192Z,99454
2017-12-28T17:33:08.211Z,99465
2017-12-28T17:35:36.452Z,99464
2017-12-28T17:38:06.374Z,99465
2017-12-28T17:40:35.443Z,99474
2017-12-28T17:43:04.521Z,99470
2017-12-28T17:45:32.773Z,99471
2017-12-28T17:48:02.577Z,99476
2017-12-28T17:50:31.161Z,99481
2017-12-28T17:52:59.378Z,99482
2017-12-28T17:55:27.640Z,99485
2017-12-28T17:57:56.514Z,99486
2017-12-28T18:00:24.731Z,99488
2017-12-28T18:02:52.933Z,99493
2017-12-28T18:05:21.161Z,99489
2017-12-28T18:07:49.453Z,99503
2017-12-28T18:10:17.975Z,99505
2017-12-28T18:12:46.262Z,99517
2017-12-28T18:15:14.482Z,99515
2017-12-28T18:17:44.025Z,99512
2017-12-28T18:20:12.276Z,99516
2017-12-28T18:22:42.136Z,99518
2017-12-28T18:25:10.395Z,99521
2017-12-28T18:27:38.614Z,99527
2017-12-28T18:30:06.891Z,99524
2017-12-28T18:32:35.786Z,99526
2017-12-28T18:35:04.132Z,99532
2017-12-28T18:37:32.393Z,99540
2017-12-28T18:40:00.638Z,99534
2017-12-28T18:42:29.620Z,99543
2017-12-28T18:44:58.931Z,99550
2017-12-28T18:47:28.212Z,99553
2017-12-28T18:49:56.470Z,99555
2017-12-28T18:52:25.966Z,99565
2017-12-28T18:54:55.305Z,99560
2017-12-28T18:57:23.582Z,99572
2017-12-28T18:59:51.846Z,99563
2017-12-28T19:02:20.889Z,99557
2017-12-28T19:04:49.386Z,99567
2017-12-28T19:07:17.687Z,99571
2017-12-28T19:09:46.949Z,99578
2017-12-28T19:12:16.355Z,99578
2017-12-28T19:14:44.610Z,99579
2017-12-28T19:17:13.723Z,99585
2017-12-28T19:19:42.683Z,99583
2017-12-28T19:22:11.964Z,99586
2017-12-28T19:24:40.355Z,99591
2017-12-28T19:27:08.681Z,99587
2017-12-28T19:29:36.958Z,99588
2017-12-28T19:32:05.258Z,99590
2017-12-28T19:34:34.334Z,99587
2017-12-28T19:37:02.619Z,99597
2017-12-28T19:39:30.896Z,99602
2017-12-28T19:41:59.987Z,99593
2017-12-28T19:44:28.328Z,99595
2017-12-28T19:46:56.717Z,99594
2017-12-28T19:49:25.007Z,99607
2017-12-28T19:51:54.775Z,99602
2017-12-28T19:54:23.542Z,99612
2017-12-28T19:56:51.825Z,99609
2017-12-28T19:59:20.127Z,99615
2017-12-28T20:01:48.461Z,99613
2017-12-28T20:04:18.225Z,99618
2017-12-28T20:06:46.665Z,99625
2017-12-28T20:09:14.941Z,99614
2017-12-28T20:11:43.194Z,99615
2017-12-28T20:14:12.236Z,99629
2017-12-28T20:16:40.519Z,99622
2017-12-28T20:19:08.848Z,99641
2017-12-28T20:21:37.937Z,99637
2017-12-28T20:24:06.963Z,99630
2017-12-28T20:26:35.324Z,99641
2017-12-28T20:29:03.658Z,99634
2017-12-28T20:31:31.905Z,99638
2017-12-28T20:34:00.248Z,99647
2017-12-28T20:36:29.614Z,99645
2017-12-28T20:38:58.130Z,99660
2017-12-28T20:41:26.366Z,99657
2017-12-28T20:43:54.647Z,99660
2017-12-28T20:46:22.942Z,99657
2017-12-28T20:48:51.259Z,99663
2017-12-28T20:51:20.279Z,99663
2017-12-28T20:53:48.548Z,99676
2017-12-28T20:56:16.826Z,99681
2017-12-28T20:58:45.119Z,99674
2017-12-28T21:01:13.415Z,99682
2017-12-28T21:03:41.679Z,99681
2017-12-28T21:06:09.955Z,99681
2017-12-28T21:08:38.259Z,99686
2017-12-28T21:11:06.541Z,99684
2017-12-28T21:13:34.801Z,99679
2017-12-28T21:16:03.870Z,99681
2017-12-28T21:18:33.065Z,99682
2017-12-28T21:21:01.377Z,99686
2017-12-28T21:23:30.714Z,99681
2017-12-28T21:25:59.158Z,99685
2017-12-28T21:28:29.453Z,99680
2017-12-28T21:30:58.517Z,99680
2017-12-28T21:33:26.818Z,99687
2017-12-28T21:35:55.204Z,99683
2017-12-28T21:38:25.730Z,99684
2017-12-28T21:40:54.770Z,99699
2017-12-28T21:43:23.040Z,99697
2017-12-28T21:45:51.866Z,99694
2017-12-28T21:48:20.143Z,99712
2017-12-28T21:50:48.418Z,99693
2017-12-28T21:53:16.678Z,99698
2017-12-28T21:55:44.988Z,99695
2017-12-28T21:58:13.272Z,99701
2017-12-28T22:00:42.321Z,99702
2017-12-28T22:03:10.703Z,99700
2017-12-28T22:05:38.981Z,99711
2017-12-28T22:08:07.330Z,99725
2017-12-28T22:10:35.733Z,99727
2017-12-28T22:13:04.008Z,99743
2017-12-28T22:15:33.277Z,99746
2017-12-28T22:18:01.609Z,99737
2017-12-28T22:20:30.073Z,99753
2017-12-28T22:22:58.334Z,99743
2017-12-28T22:25:26.589Z,99749
2017-12-28T22:27:54.833Z,99745
2017-12-28T22:30:23.872Z,99744
2017-12-28T22:32:52.161Z,99748
2017-12-28T22:35:20.389Z,99743
2017-12-28T22:37:49.437Z,99746
2017-12-28T22:40:17.718Z,99750
2017-12-28T22:42:45.976Z,99756
2017-12-28T22:45:14.553Z,99755
2017-12-28T22:47:42.781Z,99756
2017-12-28T22:50:11.014Z,99756
2017-12-28T22:52:39.245Z,99763
2017-12-28T22:55:07.509Z,99764
2017-12-28T22:57:36.514Z,99773
2017-12-28T23:00:05.507Z,99779
2017-12-28T23:02:33.774Z,99776
2017-12-28T23:05:01.981Z,99774
2017-12-28T23:07:30.215Z,99782
2017-12-28T23:09:58.537Z,99788
2017-12-28T23:12:26.777Z,99780
2017-12-28T23:14:55.746Z,99794
2017-12-28T23:17:24.881Z,99801
2017-12-28T23:19:53.149Z,99808
2017-12-28T23:22:21.396Z,99819
2017-12-28T23:24:50.464Z,99810
2017-12-28T23:27:18.718Z,99823
2017-12-28T23:29:46.960Z,99827
2017-12-28T23:32:16.788Z,99826
2017-12-28T23:34:45.162Z,99823
2017-12-28T23:37:13.639Z,99819
2017-12-28T23:39:42.080Z,99810
2017-12-28T23:42:11.235Z,99813
2017-12-28T23:44:40.507Z,99813
2017-12-28T23:47:09.764Z,99809
2017-12-28T23:49:40.841Z,99818
2017-12-28T23:53:30.466Z,99812
2017-12-28T23:56:00.733Z,99812
2017-12-28T23:58:36.263Z,99811
